sensor_id;sensor_type;location;lat;lon;timestamp;P1;durP1;ratioP1;P2;durP2;ratioP2
20044;SDS011;10183;47.808;9.476;2023-11-25T00:00:22;18.47;;;16.70;;
20044;SDS011;10183;47.808;9.476;2023-11-25T00:03:08;16.73;;;15.33;;
20044;SDS011;10183;47.808;9.476;2023-11-25T00:05:54;17.53;;;16.13;;
20044;SDS011;10183;47.808;9.476;2023-11-25T00:08:40;18.57;;;16.87;;
20044;SDS011;10183;47.808;9.476;2023-11-25T00:11:26;18.43;;;16.83;;
20044;SDS011;10183;47.808;9.476;2023-11-25T00:14:12;17.80;;;16.30;;
20044;SDS011;10183;47.808;9.476;2023-11-25T00:16:58;18.03;;;16.57;;
20044;SDS011;10183;47.808;9.476;2023-11-25T00:19:44;17.73;;;16.33;;
20044;SDS011;10183;47.808;9.476;2023-11-25T00:22:30;20.70;;;18.60;;
20044;SDS011;10183;47.808;9.476;2023-11-25T00:25:16;19.43;;;17.83;;
20044;SDS011;10183;47.808;9.476;2023-11-25T00:28:03;20.80;;;19.10;;
20044;SDS011;10183;47.808;9.476;2023-11-25T00:30:55;21.50;;;19.60;;
20044;SDS011;10183;47.808;9.476;2023-11-25T00:33:41;19.70;;;18.10;;
20044;SDS011;10183;47.808;9.476;2023-11-25T00:36:27;20.50;;;18.80;;
20044;SDS011;10183;47.808;9.476;2023-11-25T00:39:13;19.90;;;18.20;;
20044;SDS011;10183;47.808;9.476;2023-11-25T00:42:00;21.10;;;19.43;;
20044;SDS011;10183;47.808;9.476;2023-11-25T00:44:46;20.83;;;18.77;;
20044;SDS011;10183;47.808;9.476;2023-11-25T00:47:32;19.93;;;18.23;;
20044;SDS011;10183;47.808;9.476;2023-11-25T00:50:19;19.40;;;17.70;;
20044;SDS011;10183;47.808;9.476;2023-11-25T00:53:05;19.50;;;17.90;;
20044;SDS011;10183;47.808;9.476;2023-11-25T00:55:52;17.87;;;16.47;;
20044;SDS011;10183;47.808;9.476;2023-11-25T00:58:37;18.33;;;16.70;;
20044;SDS011;10183;47.808;9.476;2023-11-25T01:01:23;19.43;;;17.67;;
20044;SDS011;10183;47.808;9.476;2023-11-25T01:04:10;19.40;;;17.80;;
20044;SDS011;10183;47.808;9.476;2023-11-25T01:06:57;18.77;;;17.27;;
20044;SDS011;10183;47.808;9.476;2023-11-25T01:09:43;20.20;;;18.13;;
20044;SDS011;10183;47.808;9.476;2023-11-25T01:12:29;18.43;;;16.83;;
20044;SDS011;10183;47.808;9.476;2023-11-25T01:15:16;18.07;;;16.57;;
20044;SDS011;10183;47.808;9.476;2023-11-25T01:18:02;18.10;;;16.60;;
20044;SDS011;10183;47.808;9.476;2023-11-25T01:20:48;19.03;;;17.30;;
20044;SDS011;10183;47.808;9.476;2023-11-25T01:23:34;17.50;;;16.07;;
20044;SDS011;10183;47.808;9.476;2023-11-25T01:26:20;16.90;;;15.60;;
20044;SDS011;10183;47.808;9.476;2023-11-25T01:29:07;18.23;;;16.57;;
20044;SDS011;10183;47.808;9.476;2023-11-25T01:31:53;19.20;;;17.10;;
20044;SDS011;10183;47.808;9.476;2023-11-25T01:34:39;22.60;;;17.03;;
20044;SDS011;10183;47.808;9.476;2023-11-25T01:37:25;16.30;;;14.80;;
20044;SDS011;10183;47.808;9.476;2023-11-25T01:40:12;16.50;;;14.93;;
20044;SDS011;10183;47.808;9.476;2023-11-25T01:42:58;16.00;;;14.80;;
20044;SDS011;10183;47.808;9.476;2023-11-25T01:45:44;16.30;;;15.00;;
20044;SDS011;10183;47.808;9.476;2023-11-25T01:48:30;16.40;;;15.10;;
20044;SDS011;10183;47.808;9.476;2023-11-25T01:51:16;17.10;;;15.77;;
20044;SDS011;10183;47.808;9.476;2023-11-25T01:54:02;15.70;;;14.60;;
20044;SDS011;10183;47.808;9.476;2023-11-25T01:56:51;16.80;;;15.50;;
20044;SDS011;10183;47.808;9.476;2023-11-25T01:59:41;15.90;;;14.70;;
20044;SDS011;10183;47.808;9.476;2023-11-25T02:02:27;16.07;;;14.67;;
20044;SDS011;10183;47.808;9.476;2023-11-25T02:05:20;18.10;;;16.50;;
20044;SDS011;10183;47.808;9.476;2023-11-25T02:08:06;16.30;;;15.10;;
20044;SDS011;10183;47.808;9.476;2023-11-25T02:10:52;17.70;;;16.30;;
20044;SDS011;10183;47.808;9.476;2023-11-25T02:13:39;18.47;;;16.97;;
20044;SDS011;10183;47.808;9.476;2023-11-25T02:16:25;18.13;;;16.73;;
20044;SDS011;10183;47.808;9.476;2023-11-25T02:19:11;19.83;;;18.23;;
20044;SDS011;10183;47.808;9.476;2023-11-25T02:21:58;20.60;;;18.70;;
20044;SDS011;10183;47.808;9.476;2023-11-25T02:24:44;20.10;;;18.30;;
20044;SDS011;10183;47.808;9.476;2023-11-25T02:27:30;20.20;;;18.30;;
20044;SDS011;10183;47.808;9.476;2023-11-25T02:30:15;18.70;;;17.20;;
20044;SDS011;10183;47.808;9.476;2023-11-25T02:33:02;18.70;;;17.10;;
20044;SDS011;10183;47.808;9.476;2023-11-25T02:35:48;18.80;;;17.30;;
20044;SDS011;10183;47.808;9.476;2023-11-25T02:38:34;19.93;;;18.33;;
20044;SDS011;10183;47.808;9.476;2023-11-25T02:41:20;20.10;;;18.30;;
20044;SDS011;10183;47.808;9.476;2023-11-25T02:44:06;19.50;;;17.90;;
20044;SDS011;10183;47.808;9.476;2023-11-25T02:46:52;19.60;;;18.00;;
20044;SDS011;10183;47.808;9.476;2023-11-25T02:49:38;19.20;;;17.60;;
20044;SDS011;10183;47.808;9.476;2023-11-25T02:52:24;20.63;;;18.53;;
20044;SDS011;10183;47.808;9.476;2023-11-25T02:55:11;18.57;;;17.07;;
20044;SDS011;10183;47.808;9.476;2023-11-25T02:57:57;19.20;;;17.53;;
20044;SDS011;10183;47.808;9.476;2023-11-25T03:00:43;18.87;;;17.37;;
20044;SDS011;10183;47.808;9.476;2023-11-25T03:03:29;18.57;;;16.97;;
20044;SDS011;10183;47.808;9.476;2023-11-25T03:06:15;18.33;;;16.83;;
20044;SDS011;10183;47.808;9.476;2023-11-25T03:09:07;16.93;;;15.63;;
20044;SDS011;10183;47.808;9.476;2023-11-25T03:11:55;16.60;;;15.40;;
20044;SDS011;10183;47.808;9.476;2023-11-25T03:14:40;16.80;;;15.60;;
20044;SDS011;10183;47.808;9.476;2023-11-25T03:17:28;15.70;;;14.60;;
20044;SDS011;10183;47.808;9.476;2023-11-25T03:20:14;16.00;;;14.90;;
20044;SDS011;10183;47.808;9.476;2023-11-25T03:23:00;15.23;;;14.23;;
20044;SDS011;10183;47.808;9.476;2023-11-25T03:25:48;15.43;;;14.43;;
20044;SDS011;10183;47.808;9.476;2023-11-25T03:28:34;15.80;;;14.80;;
20044;SDS011;10183;47.808;9.476;2023-11-25T03:31:20;16.70;;;15.50;;
20044;SDS011;10183;47.808;9.476;2023-11-25T03:34:08;16.40;;;15.30;;
20044;SDS011;10183;47.808;9.476;2023-11-25T03:36:55;17.20;;;16.00;;
20044;SDS011;10183;47.808;9.476;2023-11-25T03:39:40;18.10;;;16.80;;
20044;SDS011;10183;47.808;9.476;2023-11-25T03:42:26;19.40;;;18.00;;
20044;SDS011;10183;47.808;9.476;2023-11-25T03:45:12;20.00;;;18.50;;
20044;SDS011;10183;47.808;9.476;2023-11-25T03:47:58;20.63;;;19.13;;
20044;SDS011;10183;47.808;9.476;2023-11-25T03:50:44;20.97;;;19.37;;
20044;SDS011;10183;47.808;9.476;2023-11-25T03:53:30;20.67;;;19.07;;
20044;SDS011;10183;47.808;9.476;2023-11-25T03:56:17;20.87;;;19.27;;
20044;SDS011;10183;47.808;9.476;2023-11-25T03:59:03;20.67;;;19.07;;
20044;SDS011;10183;47.808;9.476;2023-11-25T04:01:49;20.00;;;18.50;;
20044;SDS011;10183;47.808;9.476;2023-11-25T04:04:34;19.60;;;18.10;;
20044;SDS011;10183;47.808;9.476;2023-11-25T04:07:20;18.30;;;16.90;;
20044;SDS011;10183;47.808;9.476;2023-11-25T04:10:07;18.47;;;17.07;;
20044;SDS011;10183;47.808;9.476;2023-11-25T04:13:01;18.40;;;17.00;;
20044;SDS011;10183;47.808;9.476;2023-11-25T04:15:47;18.60;;;17.20;;
20044;SDS011;10183;47.808;9.476;2023-11-25T04:18:33;18.87;;;17.47;;
20044;SDS011;10183;47.808;9.476;2023-11-25T04:21:19;18.63;;;17.23;;
20044;SDS011;10183;47.808;9.476;2023-11-25T04:24:08;19.37;;;17.97;;
20044;SDS011;10183;47.808;9.476;2023-11-25T04:26:56;19.83;;;18.33;;
20044;SDS011;10183;47.808;9.476;2023-11-25T04:29:42;20.00;;;18.50;;
20044;SDS011;10183;47.808;9.476;2023-11-25T04:32:28;19.37;;;17.87;;
20044;SDS011;10183;47.808;9.476;2023-11-25T04:35:15;19.37;;;17.87;;
20044;SDS011;10183;47.808;9.476;2023-11-25T04:38:01;19.50;;;18.00;;
20044;SDS011;10183;47.808;9.476;2023-11-25T04:40:48;19.10;;;17.60;;
20044;SDS011;10183;47.808;9.476;2023-11-25T04:43:33;18.70;;;17.30;;
20044;SDS011;10183;47.808;9.476;2023-11-25T04:46:20;19.10;;;17.60;;
20044;SDS011;10183;47.808;9.476;2023-11-25T04:49:06;19.80;;;18.30;;
20044;SDS011;10183;47.808;9.476;2023-11-25T04:51:52;19.27;;;17.87;;
20044;SDS011;10183;47.808;9.476;2023-11-25T04:54:38;18.77;;;17.37;;
20044;SDS011;10183;47.808;9.476;2023-11-25T04:57:26;19.10;;;17.70;;
20044;SDS011;10183;47.808;9.476;2023-11-25T05:00:12;20.00;;;18.50;;
20044;SDS011;10183;47.808;9.476;2023-11-25T05:02:59;18.37;;;16.97;;
20044;SDS011;10183;47.808;9.476;2023-11-25T05:05:45;18.40;;;17.00;;
20044;SDS011;10183;47.808;9.476;2023-11-25T05:08:31;17.87;;;16.47;;
20044;SDS011;10183;47.808;9.476;2023-11-25T05:11:17;18.40;;;17.00;;
20044;SDS011;10183;47.808;9.476;2023-11-25T05:14:02;18.80;;;17.30;;
20044;SDS011;10183;47.808;9.476;2023-11-25T05:16:48;19.20;;;17.80;;
20044;SDS011;10183;47.808;9.476;2023-11-25T05:19:35;19.13;;;17.63;;
20044;SDS011;10183;47.808;9.476;2023-11-25T05:22:22;18.47;;;17.07;;
20044;SDS011;10183;47.808;9.476;2023-11-25T05:25:08;18.17;;;16.67;;
20044;SDS011;10183;47.808;9.476;2023-11-25T05:27:59;18.27;;;16.77;;
20044;SDS011;10183;47.808;9.476;2023-11-25T05:30:44;17.90;;;16.40;;
20044;SDS011;10183;47.808;9.476;2023-11-25T05:33:30;17.97;;;16.47;;
20044;SDS011;10183;47.808;9.476;2023-11-25T05:36:18;17.70;;;16.27;;
20044;SDS011;10183;47.808;9.476;2023-11-25T05:39:04;17.80;;;16.40;;
20044;SDS011;10183;47.808;9.476;2023-11-25T05:41:52;17.17;;;15.87;;
20044;SDS011;10183;47.808;9.476;2023-11-25T05:44:38;17.37;;;15.97;;
20044;SDS011;10183;47.808;9.476;2023-11-25T05:47:24;17.67;;;16.27;;
20044;SDS011;10183;47.808;9.476;2023-11-25T05:50:10;18.03;;;16.53;;
20044;SDS011;10183;47.808;9.476;2023-11-25T05:52:56;18.57;;;17.07;;
20044;SDS011;10183;47.808;9.476;2023-11-25T05:55:42;18.37;;;16.97;;
20044;SDS011;10183;47.808;9.476;2023-11-25T05:58:28;18.83;;;17.33;;
20044;SDS011;10183;47.808;9.476;2023-11-25T06:01:14;18.80;;;17.30;;
20044;SDS011;10183;47.808;9.476;2023-11-25T06:04:00;19.17;;;17.57;;
20044;SDS011;10183;47.808;9.476;2023-11-25T06:06:46;22.83;;;20.83;;
20044;SDS011;10183;47.808;9.476;2023-11-25T06:09:32;17.83;;;16.33;;
20044;SDS011;10183;47.808;9.476;2023-11-25T06:12:18;17.93;;;16.43;;
20044;SDS011;10183;47.808;9.476;2023-11-25T06:15:05;18.43;;;16.83;;
20044;SDS011;10183;47.808;9.476;2023-11-25T06:17:51;19.37;;;17.87;;
20044;SDS011;10183;47.808;9.476;2023-11-25T06:20:38;19.20;;;17.80;;
20044;SDS011;10183;47.808;9.476;2023-11-25T06:23:24;22.00;;;20.40;;
20044;SDS011;10183;47.808;9.476;2023-11-25T06:26:10;23.17;;;21.57;;
20044;SDS011;10183;47.808;9.476;2023-11-25T06:28:56;21.87;;;20.37;;
20044;SDS011;10183;47.808;9.476;2023-11-25T06:31:42;20.00;;;18.50;;
20044;SDS011;10183;47.808;9.476;2023-11-25T06:34:30;21.90;;;20.40;;
20044;SDS011;10183;47.808;9.476;2023-11-25T06:37:16;20.33;;;18.90;;
20044;SDS011;10183;47.808;9.476;2023-11-25T06:40:03;19.23;;;17.83;;
20044;SDS011;10183;47.808;9.476;2023-11-25T06:42:51;18.70;;;17.40;;
20044;SDS011;10183;47.808;9.476;2023-11-25T06:45:39;18.47;;;17.17;;
20044;SDS011;10183;47.808;9.476;2023-11-25T06:48:26;18.93;;;17.53;;
20044;SDS011;10183;47.808;9.476;2023-11-25T06:51:12;18.93;;;17.33;;
20044;SDS011;10183;47.808;9.476;2023-11-25T06:53:58;24.63;;;22.13;;
20044;SDS011;10183;47.808;9.476;2023-11-25T06:56:44;24.47;;;22.07;;
20044;SDS011;10183;47.808;9.476;2023-11-25T06:59:30;21.60;;;19.60;;
20044;SDS011;10183;47.808;9.476;2023-11-25T07:02:16;19.40;;;17.70;;
20044;SDS011;10183;47.808;9.476;2023-11-25T07:05:03;20.53;;;18.83;;
20044;SDS011;10183;47.808;9.476;2023-11-25T07:07:50;22.90;;;21.00;;
20044;SDS011;10183;47.808;9.476;2023-11-25T07:10:38;23.17;;;21.17;;
20044;SDS011;10183;47.808;9.476;2023-11-25T07:13:24;22.67;;;20.57;;
20044;SDS011;10183;47.808;9.476;2023-11-25T07:16:13;24.10;;;21.80;;
20044;SDS011;10183;47.808;9.476;2023-11-25T07:19:00;24.33;;;22.13;;
20044;SDS011;10183;47.808;9.476;2023-11-25T07:21:46;23.77;;;21.77;;
20044;SDS011;10183;47.808;9.476;2023-11-25T07:24:32;22.70;;;20.70;;
20044;SDS011;10183;47.808;9.476;2023-11-25T07:27:20;18.60;;;16.70;;
20044;SDS011;10183;47.808;9.476;2023-11-25T07:30:08;18.70;;;16.80;;
20044;SDS011;10183;47.808;9.476;2023-11-25T07:32:55;19.10;;;17.30;;
20044;SDS011;10183;47.808;9.476;2023-11-25T07:35:41;21.37;;;19.47;;
20044;SDS011;10183;47.808;9.476;2023-11-25T07:38:27;19.87;;;18.17;;
20044;SDS011;10183;47.808;9.476;2023-11-25T07:41:16;18.77;;;17.07;;
20044;SDS011;10183;47.808;9.476;2023-11-25T07:44:02;20.80;;;19.10;;
20044;SDS011;10183;47.808;9.476;2023-11-25T07:46:49;17.70;;;16.10;;
20044;SDS011;10183;47.808;9.476;2023-11-25T07:49:35;19.23;;;17.67;;
20044;SDS011;10183;47.808;9.476;2023-11-25T07:52:22;20.83;;;19.13;;
20044;SDS011;10183;47.808;9.476;2023-11-25T07:55:08;19.83;;;18.13;;
20044;SDS011;10183;47.808;9.476;2023-11-25T07:57:54;20.93;;;19.13;;
20044;SDS011;10183;47.808;9.476;2023-11-25T08:00:40;21.03;;;19.13;;
20044;SDS011;10183;47.808;9.476;2023-11-25T08:03:26;21.93;;;20.07;;
20044;SDS011;10183;47.808;9.476;2023-11-25T08:06:15;20.83;;;19.03;;
20044;SDS011;10183;47.808;9.476;2023-11-25T08:09:01;21.57;;;19.50;;
20044;SDS011;10183;47.808;9.476;2023-11-25T08:11:47;25.00;;;22.80;;
20044;SDS011;10183;47.808;9.476;2023-11-25T08:14:34;31.37;;;24.67;;
20044;SDS011;10183;47.808;9.476;2023-11-25T08:17:21;25.13;;;22.93;;
20044;SDS011;10183;47.808;9.476;2023-11-25T08:20:07;23.37;;;21.40;;
20044;SDS011;10183;47.808;9.476;2023-11-25T08:22:55;21.10;;;18.90;;
20044;SDS011;10183;47.808;9.476;2023-11-25T08:25:41;20.07;;;18.07;;
20044;SDS011;10183;47.808;9.476;2023-11-25T08:28:27;20.70;;;18.70;;
20044;SDS011;10183;47.808;9.476;2023-11-25T08:31:13;21.50;;;19.20;;
20044;SDS011;10183;47.808;9.476;2023-11-25T08:34:02;21.20;;;19.30;;
20044;SDS011;10183;47.808;9.476;2023-11-25T08:36:49;21.27;;;19.40;;
20044;SDS011;10183;47.808;9.476;2023-11-25T08:39:38;21.13;;;19.30;;
20044;SDS011;10183;47.808;9.476;2023-11-25T08:42:25;23.60;;;21.50;;
20044;SDS011;10183;47.808;9.476;2023-11-25T08:45:14;21.27;;;19.37;;
20044;SDS011;10183;47.808;9.476;2023-11-25T08:48:00;21.53;;;19.53;;
20044;SDS011;10183;47.808;9.476;2023-11-25T08:50:46;21.90;;;19.60;;
20044;SDS011;10183;47.808;9.476;2023-11-25T08:53:32;20.80;;;18.90;;
20044;SDS011;10183;47.808;9.476;2023-11-25T08:56:18;21.60;;;18.80;;
20044;SDS011;10183;47.808;9.476;2023-11-25T08:59:05;22.07;;;20.07;;
20044;SDS011;10183;47.808;9.476;2023-11-25T09:01:51;23.30;;;21.00;;
20044;SDS011;10183;47.808;9.476;2023-11-25T09:04:39;25.73;;;23.20;;
20044;SDS011;10183;47.808;9.476;2023-11-25T09:07:28;24.50;;;22.10;;
20044;SDS011;10183;47.808;9.476;2023-11-25T09:10:13;25.47;;;23.00;;
20044;SDS011;10183;47.808;9.476;2023-11-25T09:13:02;20.70;;;18.70;;
20044;SDS011;10183;47.808;9.476;2023-11-25T09:15:48;21.20;;;19.00;;
20044;SDS011;10183;47.808;9.476;2023-11-25T09:18:35;30.63;;;27.97;;
20044;SDS011;10183;47.808;9.476;2023-11-25T09:21:22;33.13;;;29.83;;
20044;SDS011;10183;47.808;9.476;2023-11-25T09:24:08;21.47;;;19.47;;
20044;SDS011;10183;47.808;9.476;2023-11-25T09:26:55;20.87;;;18.80;;
20044;SDS011;10183;47.808;9.476;2023-11-25T09:29:41;21.83;;;19.73;;
20044;SDS011;10183;47.808;9.476;2023-11-25T09:32:28;22.27;;;20.13;;
20044;SDS011;10183;47.808;9.476;2023-11-25T09:35:14;23.00;;;20.80;;
20044;SDS011;10183;47.808;9.476;2023-11-25T09:38:00;23.20;;;20.90;;
20044;SDS011;10183;47.808;9.476;2023-11-25T09:40:46;26.53;;;20.03;;
20044;SDS011;10183;47.808;9.476;2023-11-25T09:43:32;20.57;;;18.50;;
20044;SDS011;10183;47.808;9.476;2023-11-25T09:46:18;21.20;;;19.30;;
20044;SDS011;10183;47.808;9.476;2023-11-25T09:49:05;22.73;;;20.50;;
20044;SDS011;10183;47.808;9.476;2023-11-25T09:51:51;25.20;;;23.00;;
20044;SDS011;10183;47.808;9.476;2023-11-25T09:54:39;25.80;;;23.30;;
20044;SDS011;10183;47.808;9.476;2023-11-25T09:57:25;27.90;;;25.10;;
20044;SDS011;10183;47.808;9.476;2023-11-25T10:00:17;26.77;;;24.37;;
20044;SDS011;10183;47.808;9.476;2023-11-25T10:03:07;30.63;;;27.63;;
20044;SDS011;10183;47.808;9.476;2023-11-25T10:05:55;27.60;;;25.00;;
20044;SDS011;10183;47.808;9.476;2023-11-25T10:08:41;27.97;;;25.37;;
20044;SDS011;10183;47.808;9.476;2023-11-25T10:11:28;32.33;;;29.07;;
20044;SDS011;10183;47.808;9.476;2023-11-25T10:14:15;36.03;;;32.77;;
20044;SDS011;10183;47.808;9.476;2023-11-25T10:17:15;30.23;;;26.60;;
20044;SDS011;10183;47.808;9.476;2023-11-25T10:20:06;30.73;;;27.93;;
20044;SDS011;10183;47.808;9.476;2023-11-25T10:23:04;33.10;;;30.07;;
20044;SDS011;10183;47.808;9.476;2023-11-25T10:25:50;31.73;;;28.83;;
20044;SDS011;10183;47.808;9.476;2023-11-25T10:28:39;29.67;;;26.87;;
20044;SDS011;10183;47.808;9.476;2023-11-25T10:31:25;27.73;;;25.03;;
20044;SDS011;10183;47.808;9.476;2023-11-25T10:34:15;28.23;;;25.50;;
20044;SDS011;10183;47.808;9.476;2023-11-25T10:37:02;28.03;;;25.23;;
20044;SDS011;10183;47.808;9.476;2023-11-25T10:39:51;29.20;;;25.73;;
20044;SDS011;10183;47.808;9.476;2023-11-25T10:42:40;31.57;;;28.50;;
20044;SDS011;10183;47.808;9.476;2023-11-25T10:45:30;24.47;;;21.97;;
20044;SDS011;10183;47.808;9.476;2023-11-25T10:48:16;27.10;;;24.50;;
20044;SDS011;10183;47.808;9.476;2023-11-25T10:51:03;31.43;;;28.53;;
20044;SDS011;10183;47.808;9.476;2023-11-25T10:53:51;29.27;;;26.27;;
20044;SDS011;10183;47.808;9.476;2023-11-25T10:56:37;41.57;;;37.10;;
20044;SDS011;10183;47.808;9.476;2023-11-25T10:59:25;37.17;;;33.43;;
20044;SDS011;10183;47.808;9.476;2023-11-25T11:02:46;33.20;;;29.80;;
20044;SDS011;10183;47.808;9.476;2023-11-25T11:08:38;40.30;;;36.30;;
20044;SDS011;10183;47.808;9.476;2023-11-25T11:11:35;32.87;;;29.37;;
20044;SDS011;10183;47.808;9.476;2023-11-25T11:14:34;30.60;;;27.50;;
20044;SDS011;10183;47.808;9.476;2023-11-25T11:20:28;27.00;;;24.10;;
20044;SDS011;10183;47.808;9.476;2023-11-25T11:23:17;32.03;;;28.97;;
20044;SDS011;10183;47.808;9.476;2023-11-25T11:29:36;26.53;;;23.93;;
20044;SDS011;10183;47.808;9.476;2023-11-25T11:32:31;26.33;;;23.70;;
20044;SDS011;10183;47.808;9.476;2023-11-25T11:35:19;28.30;;;25.60;;
20044;SDS011;10183;47.808;9.476;2023-11-25T11:38:22;29.20;;;26.33;;
20044;SDS011;10183;47.808;9.476;2023-11-25T11:44:07;27.73;;;25.07;;
20044;SDS011;10183;47.808;9.476;2023-11-25T11:46:55;32.33;;;24.43;;
20044;SDS011;10183;47.808;9.476;2023-11-25T11:49:41;26.07;;;23.27;;
20044;SDS011;10183;47.808;9.476;2023-11-25T11:52:27;26.77;;;24.17;;
20044;SDS011;10183;47.808;9.476;2023-11-25T11:58:54;26.70;;;24.20;;
20044;SDS011;10183;47.808;9.476;2023-11-25T12:01:43;29.30;;;26.30;;
20044;SDS011;10183;47.808;9.476;2023-11-25T12:04:29;30.13;;;27.33;;
20044;SDS011;10183;47.808;9.476;2023-11-25T12:07:15;30.40;;;27.57;;
20044;SDS011;10183;47.808;9.476;2023-11-25T12:10:01;28.63;;;25.70;;
20044;SDS011;10183;47.808;9.476;2023-11-25T12:12:49;26.67;;;24.07;;
20044;SDS011;10183;47.808;9.476;2023-11-25T12:15:36;31.60;;;28.50;;
20044;SDS011;10183;47.808;9.476;2023-11-25T12:18:23;27.67;;;24.87;;
20044;SDS011;10183;47.808;9.476;2023-11-25T12:21:10;26.33;;;23.57;;
20044;SDS011;10183;47.808;9.476;2023-11-25T12:23:56;26.70;;;23.43;;
20044;SDS011;10183;47.808;9.476;2023-11-25T12:26:42;34.43;;;31.07;;
20044;SDS011;10183;47.808;9.476;2023-11-25T12:29:35;37.53;;;33.97;;
20044;SDS011;10183;47.808;9.476;2023-11-25T12:32:21;33.30;;;30.13;;
20044;SDS011;10183;47.808;9.476;2023-11-25T12:35:07;31.83;;;28.63;;
20044;SDS011;10183;47.808;9.476;2023-11-25T12:37:58;31.13;;;28.23;;
20044;SDS011;10183;47.808;9.476;2023-11-25T12:40:44;53.77;;;30.30;;
20044;SDS011;10183;47.808;9.476;2023-11-25T12:43:30;36.03;;;28.40;;
20044;SDS011;10183;47.808;9.476;2023-11-25T12:46:16;34.83;;;31.23;;
20044;SDS011;10183;47.808;9.476;2023-11-25T12:52:05;33.23;;;30.13;;
20044;SDS011;10183;47.808;9.476;2023-11-25T12:54:51;30.83;;;28.03;;
20044;SDS011;10183;47.808;9.476;2023-11-25T12:57:38;32.97;;;29.47;;
20044;SDS011;10183;47.808;9.476;2023-11-25T13:00:24;30.67;;;27.87;;
20044;SDS011;10183;47.808;9.476;2023-11-25T13:03:10;34.40;;;31.00;;
20044;SDS011;10183;47.808;9.476;2023-11-25T13:06:06;32.43;;;29.23;;
20044;SDS011;10183;47.808;9.476;2023-11-25T13:08:56;31.10;;;27.87;;
20044;SDS011;10183;47.808;9.476;2023-11-25T13:11:42;34.37;;;31.07;;
20044;SDS011;10183;47.808;9.476;2023-11-25T13:14:29;32.07;;;29.07;;
20044;SDS011;10183;47.808;9.476;2023-11-25T13:17:16;33.80;;;30.57;;
20044;SDS011;10183;47.808;9.476;2023-11-25T13:20:02;37.37;;;33.77;;
20044;SDS011;10183;47.808;9.476;2023-11-25T13:22:56;39.63;;;35.53;;
20044;SDS011;10183;47.808;9.476;2023-11-25T13:25:43;45.53;;;40.67;;
20044;SDS011;10183;47.808;9.476;2023-11-25T13:28:30;42.87;;;38.23;;
20044;SDS011;10183;47.808;9.476;2023-11-25T13:31:16;47.83;;;42.67;;
20044;SDS011;10183;47.808;9.476;2023-11-25T13:34:03;44.87;;;39.97;;
20044;SDS011;10183;47.808;9.476;2023-11-25T13:36:50;40.97;;;36.97;;
20044;SDS011;10183;47.808;9.476;2023-11-25T13:39:37;35.63;;;32.23;;
20044;SDS011;10183;47.808;9.476;2023-11-25T13:42:24;40.77;;;34.73;;
20044;SDS011;10183;47.808;9.476;2023-11-25T13:45:12;35.07;;;31.63;;
20044;SDS011;10183;47.808;9.476;2023-11-25T13:47:59;38.47;;;34.63;;
20044;SDS011;10183;47.808;9.476;2023-11-25T13:50:51;30.63;;;27.63;;
20044;SDS011;10183;47.808;9.476;2023-11-25T13:53:36;31.40;;;28.17;;
20044;SDS011;10183;47.808;9.476;2023-11-25T13:56:23;28.33;;;25.23;;
20044;SDS011;10183;47.808;9.476;2023-11-25T13:59:12;31.13;;;27.53;;
20044;SDS011;10183;47.808;9.476;2023-11-25T14:01:58;37.97;;;33.13;;
20044;SDS011;10183;47.808;9.476;2023-11-25T14:04:47;30.90;;;27.90;;
20044;SDS011;10183;47.808;9.476;2023-11-25T14:07:33;32.23;;;29.13;;
20044;SDS011;10183;47.808;9.476;2023-11-25T14:10:19;32.30;;;29.10;;
20044;SDS011;10183;47.808;9.476;2023-11-25T14:13:07;31.60;;;27.80;;
20044;SDS011;10183;47.808;9.476;2023-11-25T14:15:54;30.07;;;27.10;;
20044;SDS011;10183;47.808;9.476;2023-11-25T14:18:40;27.67;;;24.97;;
20044;SDS011;10183;47.808;9.476;2023-11-25T14:21:26;30.10;;;26.30;;
20044;SDS011;10183;47.808;9.476;2023-11-25T14:24:11;25.90;;;23.10;;
20044;SDS011;10183;47.808;9.476;2023-11-25T14:26:57;34.67;;;31.30;;
20044;SDS011;10183;47.808;9.476;2023-11-25T14:29:46;29.97;;;26.77;;
20044;SDS011;10183;47.808;9.476;2023-11-25T14:32:32;28.77;;;25.77;;
20044;SDS011;10183;47.808;9.476;2023-11-25T14:35:18;35.63;;;32.10;;
20044;SDS011;10183;47.808;9.476;2023-11-25T14:38:04;32.07;;;28.57;;
20044;SDS011;10183;47.808;9.476;2023-11-25T14:40:51;31.63;;;28.47;;
20044;SDS011;10183;47.808;9.476;2023-11-25T14:43:37;32.77;;;29.33;;
20044;SDS011;10183;47.808;9.476;2023-11-25T14:46:23;36.23;;;29.63;;
20044;SDS011;10183;47.808;9.476;2023-11-25T14:49:10;36.07;;;31.30;;
20044;SDS011;10183;47.808;9.476;2023-11-25T14:51:56;32.83;;;29.63;;
20044;SDS011;10183;47.808;9.476;2023-11-25T14:54:42;33.07;;;28.53;;
20044;SDS011;10183;47.808;9.476;2023-11-25T14:57:28;46.87;;;33.63;;
20044;SDS011;10183;47.808;9.476;2023-11-25T15:00:15;36.60;;;31.73;;
20044;SDS011;10183;47.808;9.476;2023-11-25T15:03:01;31.10;;;27.87;;
20044;SDS011;10183;47.808;9.476;2023-11-25T15:05:48;38.33;;;30.43;;
20044;SDS011;10183;47.808;9.476;2023-11-25T15:08:33;34.50;;;29.50;;
20044;SDS011;10183;47.808;9.476;2023-11-25T15:11:20;32.17;;;28.07;;
20044;SDS011;10183;47.808;9.476;2023-11-25T15:14:06;35.40;;;29.03;;
20044;SDS011;10183;47.808;9.476;2023-11-25T15:16:52;29.30;;;26.50;;
20044;SDS011;10183;47.808;9.476;2023-11-25T15:19:39;29.43;;;27.13;;
20044;SDS011;10183;47.808;9.476;2023-11-25T15:22:27;34.63;;;32.07;;
20044;SDS011;10183;47.808;9.476;2023-11-25T15:25:13;34.30;;;32.00;;
20044;SDS011;10183;47.808;9.476;2023-11-25T15:28:00;33.73;;;31.33;;
20044;SDS011;10183;47.808;9.476;2023-11-25T15:30:46;33.13;;;30.40;;
20044;SDS011;10183;47.808;9.476;2023-11-25T15:33:32;33.77;;;31.47;;
20044;SDS011;10183;47.808;9.476;2023-11-25T15:36:18;33.03;;;30.87;;
20044;SDS011;10183;47.808;9.476;2023-11-25T15:39:05;29.73;;;28.03;;
20044;SDS011;10183;47.808;9.476;2023-11-25T15:41:52;21.57;;;19.03;;
20044;SDS011;10183;47.808;9.476;2023-11-25T15:44:38;20.23;;;18.40;;
20044;SDS011;10183;47.808;9.476;2023-11-25T15:47:24;21.50;;;19.40;;
20044;SDS011;10183;47.808;9.476;2023-11-25T15:50:10;19.60;;;17.67;;
20044;SDS011;10183;47.808;9.476;2023-11-25T15:52:56;21.03;;;18.87;;
20044;SDS011;10183;47.808;9.476;2023-11-25T15:55:43;19.83;;;17.93;;
20044;SDS011;10183;47.808;9.476;2023-11-25T15:58:29;22.40;;;20.17;;
20044;SDS011;10183;47.808;9.476;2023-11-25T16:01:14;20.60;;;18.70;;
20044;SDS011;10183;47.808;9.476;2023-11-25T16:04:01;22.30;;;20.00;;
20044;SDS011;10183;47.808;9.476;2023-11-25T16:06:48;20.90;;;18.83;;
20044;SDS011;10183;47.808;9.476;2023-11-25T16:09:34;21.37;;;19.30;;
20044;SDS011;10183;47.808;9.476;2023-11-25T16:12:20;21.20;;;19.20;;
20044;SDS011;10183;47.808;9.476;2023-11-25T16:15:06;22.93;;;20.57;;
20044;SDS011;10183;47.808;9.476;2023-11-25T16:17:57;22.93;;;20.63;;
20044;SDS011;10183;47.808;9.476;2023-11-25T16:20:44;23.77;;;21.30;;
20044;SDS011;10183;47.808;9.476;2023-11-25T16:23:30;24.10;;;21.53;;
20044;SDS011;10183;47.808;9.476;2023-11-25T16:26:16;24.10;;;21.67;;
20044;SDS011;10183;47.808;9.476;2023-11-25T16:29:02;22.87;;;20.53;;
20044;SDS011;10183;47.808;9.476;2023-11-25T16:31:48;20.80;;;18.90;;
20044;SDS011;10183;47.808;9.476;2023-11-25T16:34:34;20.20;;;18.30;;